Time;durP1;ratioP1;P1;durP2;ratioP2;P2;SDS_P1;SDS_P2;PMS_P1;PMS_P2;Temp;Humidity;BMP_temperature;BMP_pressure;BME280_temperature;BME280_humidity;BME280_pressure;Samples;Min_cycle;Max_cycle;Signal;HPM_P1;HPM_P2
2022/05/02 00:04:06;;;;;;;4.03;1.98;;;5.20;99.90;;;;;;4757090;30;20070;-89
2022/05/02 00:17:18;;;;;;;3.22;1.85;;;5.10;99.90;;;;;;4751819;30;20058;-90
2022/05/02 02:39:10;;;;;;;;;;;;;;;;;;;;;
2022/05/02 02:46:39;;;;;;;;;;;;;;;;;;;;;
2022/05/02 04:17:14;;;;;;;3.17;1.87;;;3.10;99.90;;;;;;3026645;24;20307;-85
2022/05/02 04:19:40;;;;;;;3.60;1.55;;;3.30;99.90;;;;;;4810947;29;20331;-85
2022/05/02 04:22:49;;;;;;;2.10;1.45;;;3.00;99.90;;;;;;4825002;24;20512;-86
2022/05/02 04:32:22;;;;;;;4.60;1.98;;;4.10;99.90;;;;;;4735584;30;20110;-86
2022/05/02 04:39:40;;;;;;;2.55;1.70;;;3.30;99.90;;;;;;4717275;30;20056;-86
2022/05/02 04:43:15;;;;;;;;;;;;;;;;;;;;;
2022/05/02 04:46:27;;;;;;;4.03;1.70;;;3.20;99.90;;;;;;4685697;30;20054;-87
2022/05/02 04:49:32;;;;;;;1.70;1.30;;;3.50;99.90;;;;;;4663569;30;20135;-87
2022/05/02 05:47:41;;;;;;;;;;;;;;;;;;;;;
2022/05/02 06:01:27;;;;;;;4.30;2.50;;;6.30;99.90;;;;;;4789899;27;20146;-86
2022/05/02 06:06:56;;;;;;;3.00;2.15;;;6.60;99.90;;;;;;4813980;24;20134;-84
2022/05/02 06:09:24;;;;;;;3.60;1.92;;;6.80;99.90;;;;;;4789031;29;20057;-85
2022/05/02 06:11:58;;;;;;;3.90;2.28;;;7.00;99.90;;;;;;4807845;29;20346;-88
2022/05/02 06:20:41;;;;;;;4.65;2.95;;;7.90;99.90;;;;;;4760299;30;20055;-86
2022/05/02 06:23:19;;;;;;;2.50;1.65;;;7.60;99.90;;;;;;4756484;30;20502;-88
2022/05/02 06:29:09;;;;;;;3.05;2.00;;;8.00;99.90;;;;;;4478030;27;20038;-88
2022/05/02 06:32:13;;;;;;;;;;;;;;;;;;;;;
2022/05/02 06:35:08;;;;;;;;;;;;;;;;;;;;;
2022/05/02 06:41:46;;;;;;;;;;;;;;;;;;;;;
2022/05/02 10:28:17;;;;;;;3.10;1.33;;;17.60;90.20;;;;;;5642796;24;1280120;-93
2022/05/02 10:31:01;;;;;;;2.72;1.20;;;17.40;92.90;;;;;;4789063;29;20143;-86
2022/05/02 10:34:22;;;;;;;;;;;;;;;;;;;;;
2022/05/02 10:37:13;;;;;;;2.00;1.38;;;17.70;86.00;;;;;;4817686;24;20062;-89
2022/05/02 10:39:44;;;;;;;3.33;2.05;;;18.10;82.80;;;;;;4794142;29;20101;-87
2022/05/02 10:42:14;;;;;;;4.13;1.40;;;18.30;80.00;;;;;;4791552;29;20096;-87
2022/05/02 10:45:01;;;;;;;1.30;1.10;;;18.30;84.00;;;;;;4790053;29;20149;-87
2022/05/02 10:47:41;;;;;;;3.97;1.55;;;18.60;79.20;;;;;;4791840;29;20123;-88
2022/05/02 10:50:17;;;;;;;3.00;1.75;;;18.70;83.10;;;;;;4794730;29;20058;-87
2022/05/02 10:53:12;;;;;;;3.60;1.00;;;19.20;85.80;;;;;;4778922;29;20054;-89
2022/05/02 11:47:43;;;;;;;2.47;1.00;;;18.90;83.60;;;;;;4749356;30;20058;-92
2022/05/02 12:08:34;;;;;;;1.90;1.23;;;19.30;82.90;;;;;;4801864;24;20062;-86
2022/05/02 12:11:15;;;;;;;3.65;1.40;;;19.40;87.30;;;;;;4812098;29;20055;-87
2022/05/02 12:13:47;;;;;;;4.93;1.10;;;19.10;89.20;;;;;;4792366;29;20123;-87
2022/05/02 12:16:22;;;;;;;2.83;1.33;;;19.10;91.60;;;;;;4809173;29;20137;-86
2022/05/02 12:18:49;;;;;;;2.75;1.35;;;19.20;89.20;;;;;;4808356;29;20407;-87
2022/05/02 12:32:34;;;;;;;3.63;1.00;;;19.30;84.90;;;;;;4762540;30;20069;-91
2022/05/02 12:35:03;;;;;;;2.50;1.65;;;19.40;91.40;;;;;;4740247;30;20613;-84
2022/05/02 12:37:34;;;;;;;1.85;1.30;;;19.30;87.70;;;;;;4754437;30;20056;-86
2022/05/02 12:40:11;;;;;;;3.17;1.63;;;19.30;84.20;;;;;;4790155;24;20088;-88
2022/05/02 12:42:50;;;;;;;2.42;1.40;;;19.40;86.90;;;;;;4793107;29;20055;-90
2022/05/02 12:45:18;;;;;;;3.42;1.38;;;19.60;86.00;;;;;;4812889;29;20059;-88
2022/05/02 12:48:04;;;;;;;2.45;1.30;;;19.60;89.30;;;;;;4812340;29;20439;-87
2022/05/02 12:50:30;;;;;;;3.25;1.75;;;19.60;89.70;;;;;;4795178;29;20474;-85
2022/05/02 12:53:05;;;;;;;2.35;1.17;;;20.00;83.10;;;;;;4791614;29;20089;-86
2022/05/02 12:55:34;;;;;;;4.38;2.67;;;20.00;90.60;;;;;;4776919;29;20106;-85
2022/05/02 13:00:49;;;;;;;3.60;1.55;;;19.80;83.70;;;;;;4798051;29;20046;-84
2022/05/02 13:03:28;;;;;;;3.80;1.40;;;19.50;88.80;;;;;;4787417;29;20058;-86
2022/05/02 13:06:05;;;;;;;4.03;2.08;;;19.80;88.70;;;;;;4800071;29;20531;-85
2022/05/02 13:08:33;;;;;;;3.72;1.70;;;19.60;84.20;;;;;;4791249;29;20065;-86
2022/05/02 13:11:05;;;;;;;3.20;1.80;;;19.70;88.70;;;;;;4798260;29;20063;-85
2022/05/02 13:13:58;;;;;;;2.08;1.02;;;19.70;87.10;;;;;;4791590;29;20046;-85
2022/05/02 13:16:31;;;;;;;4.30;1.42;;;19.80;87.50;;;;;;4799400;29;20416;-86
2022/05/02 13:19:03;;;;;;;5.53;1.63;;;19.70;87.10;;;;;;4797301;29;20049;-86
2022/05/02 13:21:30;;;;;;;3.70;1.65;;;19.70;88.60;;;;;;4793767;29;20072;-87
2022/05/02 13:24:19;;;;;;;2.78;1.67;;;20.00;85.70;;;;;;4791003;29;20058;-87
2022/05/02 13:27:27;;;;;;;1.75;1.20;;;19.90;87.10;;;;;;4823562;24;20129;-91
2022/05/02 13:30:24;;;;;;;3.53;1.10;;;20.20;86.90;;;;;;4749812;30;20510;-91
2022/05/02 13:33:19;;;;;;;1.40;1.00;;;19.70;84.20;;;;;;4787475;30;20127;-93
2022/05/02 13:36:10;;;;;;;2.85;1.48;;;19.60;91.00;;;;;;4775269;30;20520;-93
2022/05/02 13:39:08;;;;;;;1.58;1.00;;;20.00;87.20;;;;;;4757301;30;20059;-93
2022/05/02 13:41:47;;;;;;;3.85;1.40;;;19.80;86.50;;;;;;4768800;30;20051;-92
2022/05/02 13:44:53;;;;;;;1.67;1.10;;;19.90;83.70;;;;;;4753100;30;20055;-90
2022/05/02 13:47:51;;;;;;;3.83;1.27;;;19.60;84.50;;;;;;4762806;30;20111;-90
2022/05/02 13:50:26;;;;;;;3.40;1.33;;;19.30;87.40;;;;;;4771968;30;20098;-91
2022/05/02 13:53:28;;;;;;;3.15;1.30;;;19.20;90.00;;;;;;4774953;30;20129;-93
2022/05/02 13:56:09;;;;;;;7.03;1.80;;;19.30;83.60;;;;;;4776743;30;20051;-92
2022/05/02 13:59:25;;;;;;;3.85;1.45;;;19.50;87.70;;;;;;4813084;24;20051;-90
2022/05/02 14:02:38;;;;;;;2.72;1.23;;;19.70;87.50;;;;;;4754856;29;20069;-93
2022/05/02 14:05:43;;;;;;;3.63;1.20;;;19.60;91.40;;;;;;5026597;24;20145;-92
2022/05/02 14:16:57;;;;;;;2.10;1.20;;;19.20;88.70;;;;;;4809398;29;20342;-91
2022/05/02 14:26:53;;;;;;;2.47;1.00;;;19.40;82.00;;;;;;4814102;29;20053;-92
2022/05/02 14:29:37;;;;;;;1.85;1.00;;;19.30;81.90;;;;;;4800202;29;20057;-88
2022/05/02 14:32:11;;;;;;;1.98;0.98;;;19.70;76.80;;;;;;4780877;29;20459;-89
2022/05/02 14:36:18;;;;;;;;;;;;;;;;;;;;;
2022/05/02 14:38:17;;;;;;;1.95;1.10;;;19.30;79.10;;;;;;4770295;30;20094;-91
2022/05/02 14:40:48;;;;;;;2.65;1.10;;;19.00;76.70;;;;;;4788365;30;20083;-91
2022/05/02 14:43:15;;;;;;;1.83;1.00;;;19.00;78.00;;;;;;4779058;30;20067;-88
2022/05/02 14:45:48;;;;;;;1.85;0.70;;;19.20;75.90;;;;;;4755689;30;20529;-89
2022/05/02 14:48:27;;;;;;;1.30;0.80;;;19.20;71.10;;;;;;4778875;24;20138;-90
2022/05/02 14:51:25;;;;;;;3.75;0.93;;;19.50;78.90;;;;;;4796978;24;20158;-90
2022/05/02 14:53:59;;;;;;;1.45;0.98;;;19.30;71.80;;;;;;4811062;24;20066;-87
2022/05/02 14:56:30;;;;;;;1.10;0.70;;;19.30;76.60;;;;;;4785599;29;20062;-86
2022/05/02 14:59:47;;;;;;;2.45;0.90;;;19.20;78.50;;;;;;4803356;29;20053;-88
2022/05/02 15:02:47;;;;;;;2.22;0.98;;;19.00;74.40;;;;;;4798883;29;20058;-88
2022/05/02 15:05:21;;;;;;;3.58;1.00;;;18.60;75.80;;;;;;4731577;30;20091;-88
2022/05/02 15:08:11;;;;;;;1.85;0.90;;;18.90;77.70;;;;;;4701045;30;20080;-88
2022/05/02 15:11:09;;;;;;;;;;;;;;;;;;;;;
2022/05/02 15:14:14;;;;;;;1.60;0.90;;;18.80;76.30;;;;;;4762185;24;20544;-87
2022/05/02 15:17:02;;;;;;;1.45;1.00;;;18.80;72.70;;;;;;4810878;29;20134;-88
2022/05/02 15:20:02;;;;;;;1.10;0.70;;;18.90;69.70;;;;;;4803904;29;20051;-89
2022/05/02 15:27:11;;;;;;;;;;;;;;;;;;;;;
2022/05/02 15:39:12;;;;;;;0.50;0.20;;;18.60;62.40;;;;;;4787409;29;20217;-90
2022/05/02 15:41:50;;;;;;;;;;;18.40;59.90;;;;;;4787638;30;20496;-86
2022/05/02 15:44:35;;;;;;;0.17;0.10;;;18.10;61.40;;;;;;4771204;30;20283;-89
2022/05/02 15:47:25;;;;;;;0.15;0.05;;;18.10;60.40;;;;;;4732357;30;20060;-89
2022/05/02 15:50:01;;;;;;;0.00;0.00;;;17.90;58.90;;;;;;4680642;30;20582;-88
2022/05/02 15:52:34;;;;;;;0.00;0.00;;;18.10;56.90;;;;;;4680320;30;20058;-90
2022/05/02 15:55:07;;;;;;;0.10;0.00;;;17.90;56.90;;;;;;4665820;30;20070;-89
2022/05/02 15:57:54;;;;;;;1.00;0.10;;;17.70;54.70;;;;;;4665711;30;20058;-89
2022/05/02 16:00:50;;;;;;;0.10;0.05;;;17.80;56.10;;;;;;4666043;30;20084;-90
2022/05/02 16:03:26;;;;;;;0.10;0.10;;;17.80;53.00;;;;;;4679944;30;20070;-89
2022/05/02 16:06:16;;;;;;;0.20;0.00;;;17.50;54.40;;;;;;4652332;30;20058;-88
2022/05/02 16:12:23;;;;;;;0.20;0.10;;;17.50;53.30;;;;;;4666133;30;20058;-88
2022/05/02 16:14:57;;;;;;;0.00;0.00;;;17.40;54.30;;;;;;4645384;30;20095;-90
2022/05/02 16:17:25;;;;;;;0.63;0.20;;;17.20;55.40;;;;;;4621822;30;20571;-90
2022/05/02 16:20:06;;;;;;;0.00;0.00;;;17.00;54.90;;;;;;4653245;30;20066;-88
2022/05/02 16:22:47;;;;;;;0.20;0.10;;;16.70;55.60;;;;;;4665867;30;20135;-89
2022/05/02 16:25:28;;;;;;;0.00;0.00;;;16.40;56.50;;;;;;4680347;30;20579;-88
2022/05/02 16:27:57;;;;;;;0.60;0.10;;;16.50;57.10;;;;;;4665804;30;20587;-87
2022/05/02 16:30:26;;;;;;;0.10;0.10;;;16.20;57.30;;;;;;4665776;30;20062;-88
2022/05/02 16:32:54;;;;;;;1.75;0.10;;;16.00;58.10;;;;;;4677022;30;20069;-87
2022/05/02 16:35:24;;;;;;;1.15;0.10;;;16.00;59.80;;;;;;4662233;30;20587;-88
2022/05/02 16:37:55;;;;;;;0.17;0.10;;;15.80;60.20;;;;;;4675016;30;20449;-87
2022/05/02 16:40:29;;;;;;;0.10;0.10;;;15.70;60.90;;;;;;4665499;30;20488;-87
2022/05/02 16:43:05;;;;;;;0.25;0.15;;;15.60;62.90;;;;;;4679227;30;20508;-88
2022/05/02 16:45:35;;;;;;;0.98;0.20;;;15.50;62.60;;;;;;4665248;30;20066;-87
2022/05/02 16:48:05;;;;;;;0.20;0.10;;;15.60;63.10;;;;;;4688875;30;20516;-89
2022/05/02 16:50:38;;;;;;;0.55;0.17;;;15.60;65.50;;;;;;4698215;29;20069;-89
2022/05/02 16:53:05;;;;;;;2.40;0.20;;;15.40;68.00;;;;;;4762145;29;20130;-87
2022/05/02 16:55:32;;;;;;;0.20;0.10;;;15.80;66.40;;;;;;4789850;29;20047;-88
2022/05/02 16:58:11;;;;;;;0.25;0.10;;;15.40;67.00;;;;;;4780300;30;20056;-89
2022/05/02 17:00:45;;;;;;;0.22;0.10;;;15.00;69.00;;;;;;4773605;30;20142;-88
2022/05/02 17:03:13;;;;;;;0.20;0.20;;;14.90;72.20;;;;;;4759351;30;20054;-88
2022/05/02 17:05:40;;;;;;;0.40;0.20;;;14.90;71.30;;;;;;4781159;29;20059;-93
2022/05/02 17:08:17;;;;;;;0.43;0.17;;;14.80;74.00;;;;;;4781976;30;20059;-87
2022/05/02 17:10:49;;;;;;;2.13;0.20;;;14.80;75.80;;;;;;4779225;29;20055;-88
2022/05/02 17:16:44;;;;;;;0.20;0.20;;;14.50;81.30;;;;;;4876197;24;20092;-88
2022/05/02 17:19:24;;;;;;;0.75;0.17;;;14.40;80.80;;;;;;4816527;29;20061;-90
2022/05/02 17:28:04;;;;;;;0.88;0.20;;;13.90;91.70;;;;;;2586181;27;20119;-88
2022/05/02 17:30:38;;;;;;;0.95;0.30;;;13.70;92.10;;;;;;4811272;29;20059;-89
2022/05/02 17:33:12;;;;;;;0.75;0.40;;;13.60;93.80;;;;;;4802828;29;20046;-90
2022/05/02 17:35:57;;;;;;;0.40;0.32;;;13.40;96.40;;;;;;4797945;29;20138;-90
2022/05/02 17:38:56;;;;;;;1.17;0.30;;;13.40;96.00;;;;;;4808299;29;20061;-87
2022/05/02 17:43:58;;;;;;;0.55;0.35;;;13.20;98.30;;;;;;5132673;24;20063;-86
2022/05/02 17:46:40;;;;;;;1.63;0.30;;;13.10;98.80;;;;;;4810018;29;20082;-91
2022/05/02 17:49:15;;;;;;;0.60;0.30;;;12.90;98.70;;;;;;4848770;24;20051;-84
2022/05/02 17:52:25;;;;;;;;;;;12.90;97.70;;;;;;4780571;29;20051;-88
2022/05/02 17:54:46;;;;;;;0.68;0.40;;;12.80;99.10;;;;;;4803135;29;19929;-86
2022/05/02 17:57:19;;;;;;;0.30;0.30;;;12.70;98.80;;;;;;4796357;29;20057;-86
2022/05/02 18:00:14;;;;;;;0.43;0.40;;;12.70;99.90;;;;;;4810750;29;20059;-87
2022/05/02 18:02:44;;;;;;;1.88;0.68;;;12.60;99.90;;;;;;4787060;29;20055;-87
2022/05/02 18:05:32;;;;;;;1.10;0.65;;;12.70;99.90;;;;;;4786597;29;20046;-87
2022/05/02 18:08:01;;;;;;;1.10;0.60;;;12.40;99.90;;;;;;4798118;29;20386;-89
2022/05/02 18:10:29;;;;;;;0.93;0.50;;;12.20;99.90;;;;;;4806791;29;20147;-87
2022/05/02 18:13:19;;;;;;;1.55;0.57;;;12.10;99.90;;;;;;4806351;29;20054;-88
2022/05/02 18:16:02;;;;;;;1.35;0.60;;;12.00;99.90;;;;;;4790359;29;20050;-87
2022/05/02 18:18:44;;;;;;;0.68;0.50;;;12.00;99.90;;;;;;4790323;29;20065;-88
2022/05/02 18:21:18;;;;;;;0.95;0.70;;;11.90;99.90;;;;;;4790330;29;20077;-87
2022/05/02 18:23:53;;;;;;;2.92;0.65;;;11.80;99.90;;;;;;4790083;29;20563;-89
2022/05/02 18:26:23;;;;;;;0.88;0.60;;;11.70;99.90;;;;;;4784736;29;20062;-89
2022/05/02 18:28:51;;;;;;;1.23;0.70;;;12.00;99.90;;;;;;4810197;29;20046;-91
2022/05/02 18:32:04;;;;;;;;;;;;;;;;;;;;;
2022/05/02 18:38:14;;;;;;;1.90;0.73;;;11.40;99.90;;;;;;4742246;30;20105;-87
2022/05/02 18:40:58;;;;;;;1.35;0.88;;;11.30;99.90;;;;;;4735642;30;20169;-88
2022/05/02 18:43:31;;;;;;;0.98;0.75;;;11.60;99.90;;;;;;4751085;30;20083;-87
2022/05/02 18:54:33;;;;;;;1.45;0.85;;;10.90;99.90;;;;;;4750215;30;20438;-86
2022/05/02 18:57:08;;;;;;;1.33;0.73;;;10.80;99.90;;;;;;4735419;30;20067;-86
2022/05/02 18:59:39;;;;;;;3.17;0.82;;;10.70;99.90;;;;;;4756317;30;20052;-86
2022/05/02 19:02:06;;;;;;;1.63;0.80;;;10.60;99.90;;;;;;4735107;30;20507;-86
2022/05/02 19:04:45;;;;;;;1.50;0.80;;;10.60;99.90;;;;;;4749664;30;20102;-87
2022/05/02 19:07:15;;;;;;;1.98;0.90;;;10.50;99.90;;;;;;4755860;29;20417;-90
2022/05/02 19:09:43;;;;;;;2.25;0.70;;;10.80;99.90;;;;;;4789391;29;20200;-85
2022/05/02 19:12:13;;;;;;;1.73;0.80;;;10.40;99.90;;;;;;4804612;29;20055;-86
2022/05/02 19:14:42;;;;;;;1.70;0.70;;;10.30;99.90;;;;;;4798413;29;20159;-85
2022/05/02 19:17:15;;;;;;;1.88;1.00;;;10.30;99.90;;;;;;4818182;29;20129;-87
2022/05/02 19:19:42;;;;;;;1.48;0.80;;;10.30;99.90;;;;;;4808220;29;20196;-86
2022/05/02 19:23:09;;;;;;;1.60;0.82;;;10.10;99.90;;;;;;4805207;29;20393;-91
2022/05/02 19:25:41;;;;;;;1.07;0.83;;;10.10;99.90;;;;;;4750241;30;20456;-87
2022/05/02 19:28:18;;;;;;;1.75;0.75;;;10.00;99.90;;;;;;4735253;30;20067;-88
2022/05/02 19:30:49;;;;;;;1.25;0.90;;;10.30;99.90;;;;;;4735120;30;20491;-86
2022/05/02 19:33:24;;;;;;;1.02;0.68;;;9.90;99.90;;;;;;4719976;30;20056;-91
2022/05/02 19:39:06;;;;;;;1.75;0.80;;;10.10;99.90;;;;;;4734529;30;20153;-85
2022/05/02 19:41:39;;;;;;;1.20;0.65;;;9.80;99.90;;;;;;4734540;30;20099;-85
2022/05/02 19:44:17;;;;;;;2.67;0.80;;;9.70;99.90;;;;;;4734962;30;20120;-87
2022/05/02 19:46:45;;;;;;;1.33;0.70;;;9.60;99.90;;;;;;4735561;30;20047;-86
2022/05/02 19:49:15;;;;;;;2.03;0.70;;;9.70;99.90;;;;;;4741147;30;20051;-88
2022/05/02 19:51:48;;;;;;;1.10;0.65;;;9.60;99.90;;;;;;4767890;30;20079;-91
2022/05/02 19:54:44;;;;;;;1.15;0.80;;;9.50;99.90;;;;;;4767577;30;20102;-86
2022/05/02 19:57:13;;;;;;;1.15;0.63;;;9.50;99.90;;;;;;4831830;24;20065;-86
2022/05/02 19:59:39;;;;;;;1.48;0.77;;;9.90;99.90;;;;;;4793244;29;20111;-87
2022/05/02 20:02:06;;;;;;;1.48;0.77;;;9.40;99.90;;;;;;4791000;29;20450;-87
2022/05/02 20:04:42;;;;;;;1.75;1.10;;;9.40;99.90;;;;;;4793725;29;20127;-86
2022/05/02 20:07:13;;;;;;;2.47;0.90;;;9.40;99.90;;;;;;4785356;29;20054;-88
2022/05/02 20:09:42;;;;;;;1.33;0.70;;;9.30;99.90;;;;;;4773212;29;20054;-88
2022/05/02 20:12:29;;;;;;;;;;;;;;;;;;;;;
2022/05/02 20:14:58;;;;;;;1.98;0.88;;;9.60;99.90;;;;;;4786069;29;20154;-87
2022/05/02 20:17:29;;;;;;;2.13;1.10;;;9.10;99.90;;;;;;4788582;29;20501;-86
2022/05/02 20:20:00;;;;;;;4.38;1.15;;;9.00;99.90;;;;;;4773987;29;20124;-87
2022/05/02 20:22:29;;;;;;;1.00;0.80;;;9.30;99.90;;;;;;4788643;29;20233;-87
2022/05/02 20:24:59;;;;;;;2.03;1.00;;;9.00;99.90;;;;;;4809698;29;20063;-87
2022/05/02 20:27:40;;;;;;;1.40;0.82;;;8.90;99.90;;;;;;4791810;29;20412;-88
2022/05/02 20:30:30;;;;;;;2.10;1.00;;;8.80;99.90;;;;;;4795878;29;20090;-88
2022/05/02 20:38:54;;;;;;;1.77;0.90;;;8.70;99.90;;;;;;4798320;29;20051;-88
2022/05/02 20:41:29;;;;;;;1.10;0.70;;;8.60;99.90;;;;;;4792851;29;20462;-87
2022/05/02 20:44:05;;;;;;;1.30;0.80;;;8.50;99.90;;;;;;4807782;29;20385;-86
2022/05/02 20:46:33;;;;;;;1.50;0.75;;;8.40;99.90;;;;;;4799071;29;20427;-86
2022/05/02 20:49:13;;;;;;;1.38;0.90;;;8.70;99.90;;;;;;4808196;29;20053;-89
2022/05/02 20:57:11;;;;;;;2.25;1.00;;;7.80;99.90;;;;;;4839294;24;20060;-89
2022/05/02 20:59:44;;;;;;;3.25;1.00;;;7.70;99.90;;;;;;4791424;29;20447;-87
2022/05/02 21:02:15;;;;;;;2.17;0.90;;;8.30;99.90;;;;;;4791588;29;20059;-89
2022/05/02 21:05:03;;;;;;;2.70;1.10;;;8.20;99.90;;;;;;4777312;29;20393;-88
2022/05/02 21:08:13;;;;;;;2.30;1.23;;;7.30;99.90;;;;;;4815355;29;20046;-88
2022/05/02 21:14:38;;;;;;;2.15;1.20;;;7.30;99.90;;;;;;4715321;30;19926;-87
2022/05/02 21:17:55;;;;;;;2.33;1.20;;;7.20;99.90;;;;;;4702936;30;20059;-89
2022/05/02 21:21:06;;;;;;;;;;;;;;;;;;;;;
2022/05/02 21:24:24;;;;;;;2.92;1.30;;;7.50;99.90;;;;;;4709447;24;20132;-86
2022/05/02 21:27:11;;;;;;;1.67;0.98;;;7.30;99.90;;;;;;4794484;29;20086;-88
2022/05/02 21:30:27;;;;;;;;;;;;;;;;;;;;;
2022/05/02 21:33:14;;;;;;;3.55;1.50;;;7.40;99.90;;;;;;4791205;29;20074;-87
2022/05/02 21:36:39;;;;;;;1.50;1.25;;;7.50;99.90;;;;;;4808472;29;20055;-89
2022/05/02 21:39:55;;;;;;;2.75;1.45;;;7.40;99.90;;;;;;4803425;29;20092;-88
2022/05/02 21:43:18;;;;;;;3.50;1.45;;;7.20;99.90;;;;;;4791591;29;20046;-86
2022/05/02 21:45:23;;;;;;;3.15;1.27;;;7.70;99.90;;;;;;4794007;29;20051;-87
2022/05/02 21:48:24;;;;;;;2.55;1.50;;;7.60;99.90;;;;;;4797728;29;20578;-86
2022/05/02 21:54:46;;;;;;;4.05;1.60;;;7.10;99.90;;;;;;4731360;30;20056;-86
2022/05/02 21:57:41;;;;;;;3.35;1.67;;;7.10;99.90;;;;;;4718125;30;20057;-87
2022/05/02 22:00:31;;;;;;;2.53;1.40;;;7.00;99.90;;;;;;4736841;30;20135;-86
2022/05/02 22:02:57;;;;;;;2.47;1.25;;;6.90;99.90;;;;;;4711050;30;20096;-93
2022/05/02 22:05:23;;;;;;;4.25;1.40;;;5.60;99.90;;;;;;4750398;30;20090;-87
2022/05/02 22:07:52;;;;;;;1.75;1.20;;;6.80;99.90;;;;;;4745466;30;20060;-89
2022/05/02 22:10:19;;;;;;;3.30;1.33;;;6.70;99.90;;;;;;4741377;30;20089;-87
2022/05/02 22:12:45;;;;;;;1.85;1.20;;;6.70;99.90;;;;;;4745471;30;20082;-88
2022/05/02 22:15:16;;;;;;;2.42;1.30;;;6.60;99.90;;;;;;4736244;30;20060;-91
2022/05/02 22:17:45;;;;;;;2.17;1.42;;;6.60;99.90;;;;;;4717626;30;20092;-91
2022/05/02 22:20:20;;;;;;;3.35;1.50;;;6.60;99.90;;;;;;4715045;30;20056;-90
2022/05/02 22:22:49;;;;;;;2.25;1.33;;;6.60;99.90;;;;;;4733365;30;20148;-91
2022/05/02 22:25:21;;;;;;;2.13;1.35;;;6.90;99.90;;;;;;4732752;30;20143;-92
2022/05/02 22:28:01;;;;;;;1.88;1.35;;;6.60;99.90;;;;;;4734439;30;20100;-92
2022/05/02 22:30:29;;;;;;;2.83;1.60;;;6.50;99.90;;;;;;4743990;29;20405;-87
2022/05/02 22:32:55;;;;;;;2.38;1.50;;;6.50;99.90;;;;;;4797316;29;20055;-91
2022/05/02 22:35:28;;;;;;;2.03;1.25;;;6.50;99.90;;;;;;4790066;29;20051;-89
2022/05/02 22:38:06;;;;;;;3.03;1.50;;;6.50;99.90;;;;;;4793534;29;20058;-90
2022/05/02 22:40:38;;;;;;;2.88;1.45;;;6.40;99.90;;;;;;4792194;29;20055;-88
2022/05/02 22:43:21;;;;;;;1.73;1.15;;;6.30;99.90;;;;;;4782364;29;20058;-90
2022/05/02 22:46:00;;;;;;;1.83;1.08;;;5.90;99.90;;;;;;4806649;29;20122;-91
2022/05/02 22:49:17;;;;;;;1.80;1.20;;;6.70;99.90;;;;;;4791661;29;20535;-89
2022/05/02 22:51:51;;;;;;;2.47;1.30;;;6.00;99.90;;;;;;4782671;29;20108;-90
2022/05/02 22:54:22;;;;;;;1.75;1.08;;;6.10;99.90;;;;;;4790044;29;20054;-89
2022/05/02 22:56:58;;;;;;;1.60;1.15;;;6.20;99.90;;;;;;4806475;29;20051;-88
2022/05/02 22:59:41;;;;;;;2.15;1.15;;;5.90;99.90;;;;;;4812271;29;20054;-90
2022/05/02 23:02:25;;;;;;;2.47;1.35;;;5.70;99.90;;;;;;4788635;29;20047;-87
2022/05/02 23:05:48;;;;;;;3.47;1.20;;;5.30;99.90;;;;;;4796197;29;20072;-88
2022/05/02 23:12:35;;;;;;;2.55;1.65;;;5.10;99.90;;;;;;4774807;30;20168;-87
2022/05/02 23:15:15;;;;;;;2.03;1.27;;;5.50;99.90;;;;;;4757072;30;20497;-90
2022/05/02 23:17:54;;;;;;;3.35;1.67;;;5.20;99.90;;;;;;4758339;30;20056;-88
2022/05/02 23:20:21;;;;;;;2.42;1.55;;;5.30;99.90;;;;;;4737965;30;20071;-91
2022/05/02 23:23:01;;;;;;;;;;;;;;;;;;;;;
2022/05/02 23:25:46;;;;;;;3.08;1.75;;;5.30;99.90;;;;;;4756355;30;20975;-90
2022/05/02 23:28:20;;;;;;;2.28;1.33;;;5.30;99.90;;;;;;4768194;30;20087;-89
2022/05/02 23:31:16;;;;;;;2.58;1.70;;;5.40;99.90;;;;;;4771582;30;20059;-87
2022/05/02 23:34:15;;;;;;;3.28;1.70;;;5.40;99.90;;;;;;4750932;29;20063;-89
2022/05/02 23:36:53;;;;;;;;;;;;;;;;;;;;;
2022/05/02 23:39:32;;;;;;;4.25;1.50;;;5.50;99.90;;;;;;4769704;30;20048;-90
2022/05/02 23:42:03;;;;;;;2.13;1.17;;;5.50;99.90;;;;;;4752042;30;20106;-88
2022/05/02 23:45:02;;;;;;;2.95;1.70;;;5.50;99.90;;;;;;4769527;29;20660;-89
2022/05/02 23:48:00;;;;;;;3.80;1.40;;;5.60;99.90;;;;;;4795847;29;20069;-89
2022/05/02 23:50:53;;;;;;;2.75;1.60;;;5.60;99.90;;;;;;4774622;29;20051;-89
2022/05/02 23:53:32;;;;;;;2.20;1.30;;;5.50;99.90;;;;;;4732146;30;20091;-89
2022/05/02 23:56:03;;;;;;;3.22;1.75;;;5.60;99.90;;;;;;4714455;30;20060;-89
2022/05/02 23:58:39;;;;;;;2.78;1.58;;;5.60;99.90;;;;;;4717644;30;20068;-89
